Mercedes — PCMC — position and weather

sailwx.info

Track history (hours):
 
Tides and Currents Weather Stations Pressure Air Temp Water Temp Dewpoint Dewpoint Depression Visibility Wind Speed Wind Dir Waves Ship Positions

Mercedes (Netherlands)

Brig, built 2005.

Last reported at 2017-Mar-07 16:32 UTC. Time now 2017-Mar-29 13:16 UTC.
Position N 18°02' W 063°06'.
Warning: this ship's position is 21 days out of date.

Length 47 m; draft 3.4 m.

Type: Sailing vessel. MMSI: 244595000.

Date/timePositionNaut miles runAvg speedWind from/ knotsBaromVisibWave heightAir tempDewpointWater temp
2017-Mar-07 16:32N 18°02' W 063°06'3 2.4
2017-Mar-07 15:25N 17°59' W 063°07'3 0.1
2017-Mar-05 20:30N 18°01' W 063°04'4 4.0
2017-Mar-05 19:33N 18°03' W 063°08'5 3.9
2017-Mar-05 18:20N 17°60' W 063°04'1 0.7
2017-Mar-05 16:32N 18°01' W 063°03'5 5.3
2017-Mar-05 15:32N 18°03' W 063°08'4 3.8
2017-Mar-05 14:31N 17°60' W 063°06'3 0.5
2017-Mar-05 08:24N 18°01' W 063°03'0 0.0
2017-Mar-05 07:30N 18°01' W 063°03'0 0.0
2017-Mar-05 04:15N 18°01' W 063°03'1 0.1
2017-Mar-04 16:23N 18°01' W 063°04'5 5.5
2017-Mar-04 15:31N 18°03' W 063°08'5 4.5
2017-Mar-04 14:26N 17°59' W 063°05'3 1.0
2017-Mar-04 11:28N 18°01' W 063°03'0 0.0
2017-Mar-04 10:25N 18°01' W 063°03'3 0.2
2017-Mar-03 15:12N 18°02' W 063°06'4 6.3
2017-Mar-03 14:32N 18°04' W 063°10'6 6.0
2017-Mar-03 13:28N 17°60' W 063°05'2 0.8
2017-Mar-03 10:28N 18°01' W 063°03'0 0.0
2017-Mar-03 03:30N 18°01' W 063°03'0 0.0
2017-Mar-03 00:33N 18°01' W 063°03'0 0.0
2017-Mar-02 23:15N 18°01' W 063°03'0 0.0
2017-Mar-02 22:30N 18°01' W 063°03'0 0.0
2017-Mar-02 21:33N 18°01' W 063°03'1 0.5
2017-Mar-02 19:27N 18°01' W 063°04'5 5.8
2017-Mar-02 18:32N 18°03' W 063°09'6 6.2
2017-Mar-02 17:32N 17°58' W 063°05'3 1.4
2017-Mar-02 15:32N 18°01' W 063°04'5 5.3
2017-Mar-02 14:33N 18°03' W 063°09'6 5.4
2017-Mar-02 13:32N 17°59' W 063°05'2 0.5
2017-Mar-02 08:25N 18°01' W 063°03'0 0.0
2017-Mar-02 07:07N 18°01' W 063°03'0 0.0
2017-Mar-02 04:13N 18°01' W 063°03'0 0.0
2017-Mar-02 01:25N 18°01' W 063°03'0 0.0
2017-Mar-01 09:32N 18°01' W 063°03'0 0.0
2017-Mar-01 07:17N 18°01' W 063°03'0 0.0
2017-Mar-01 06:32N 18°01' W 063°03'0 0.0
2017-Mar-01 05:08N 18°01' W 063°03'0 0.0
2017-Mar-01 04:30N 18°01' W 063°03'0 0.0
2017-Mar-01 03:31N 18°01' W 063°03'0 0.0
2017-Mar-01 02:22N 18°01' W 063°03'0 0.0
2017-Mar-01 01:24N 18°01' W 063°03'0 0.0
2017-Mar-01 00:33N 18°01' W 063°03'0 0.0
2017-Feb-28 23:22N 18°01' W 063°03'1 0.2
2017-Feb-28 20:09N 18°01' W 063°04'3 5.4
2017-Feb-28 19:34N 18°02' W 063°07'2 1.4
2017-Feb-28 18:31N 18°01' W 063°06'3 0.8
2017-Feb-28 15:16N 18°01' W 063°03'5 5.4
2017-Feb-28 14:20N 18°03' W 063°08'4 4.7
2017-Feb-28 13:31N 17°60' W 063°06'3 0.1
2017-Feb-27 03:26N 18°01' W 063°03'0 0.0
2017-Feb-27 02:29N 18°01' W 063°03'1 0.1
2017-Feb-26 20:28N 18°01' W 063°04'4 4.0
2017-Feb-26 19:25N 18°02' W 063°08'4 4.2
2017-Feb-26 18:33N 17°60' W 063°05'2 0.6
2017-Feb-26 15:29N 18°01' W 063°03'5 5.2
2017-Feb-26 14:34N 18°03' W 063°08'4 3.6
2017-Feb-26 13:33N 17°60' W 063°06'  
Track history (hours):
 
Tides and Currents Weather Stations Pressure Air Temp Water Temp Dewpoint Dewpoint Depression Visibility Wind Speed Wind Dir Waves Ship Positions

Mercedes (Netherlands)

Brig, built 2005.

Last reported at 2017-Mar-07 16:32 UTC. Time now 2017-Mar-29 13:16 UTC.
Position N 18°02' W 063°06'.
Warning: this ship's position is 21 days out of date.

Length 47 m; draft 3.4 m.

Type: Sailing vessel. MMSI: 244595000.

Date/timePositionNaut miles runAvg speedWind from/ knotsBaromVisibWave heightAir tempDewpointWater temp
2017-Mar-07 16:32N 18°02' W 063°06'3 2.4
2017-Mar-07 15:25N 17°59' W 063°07'3 0.1
2017-Mar-05 20:30N 18°01' W 063°04'4 4.0
2017-Mar-05 19:33N 18°03' W 063°08'5 3.9
2017-Mar-05 18:20N 17°60' W 063°04'1 0.7
2017-Mar-05 16:32N 18°01' W 063°03'5 5.3
2017-Mar-05 15:32N 18°03' W 063°08'4 3.8
2017-Mar-05 14:31N 17°60' W 063°06'3 0.5
2017-Mar-05 08:24N 18°01' W 063°03'0 0.0
2017-Mar-05 07:30N 18°01' W 063°03'0 0.0
2017-Mar-05 04:15N 18°01' W 063°03'1 0.1
2017-Mar-04 16:23N 18°01' W 063°04'5 5.5
2017-Mar-04 15:31N 18°03' W 063°08'5 4.5
2017-Mar-04 14:26N 17°59' W 063°05'3 1.0
2017-Mar-04 11:28N 18°01' W 063°03'0 0.0
2017-Mar-04 10:25N 18°01' W 063°03'3 0.2
2017-Mar-03 15:12N 18°02' W 063°06'4 6.3
2017-Mar-03 14:32N 18°04' W 063°10'6 6.0
2017-Mar-03 13:28N 17°60' W 063°05'2 0.8
2017-Mar-03 10:28N 18°01' W 063°03'0 0.0
2017-Mar-03 03:30N 18°01' W 063°03'0 0.0
2017-Mar-03 00:33N 18°01' W 063°03'0 0.0
2017-Mar-02 23:15N 18°01' W 063°03'0 0.0
2017-Mar-02 22:30N 18°01' W 063°03'0 0.0
2017-Mar-02 21:33N 18°01' W 063°03'1 0.5
2017-Mar-02 19:27N 18°01' W 063°04'5 5.8
2017-Mar-02 18:32N 18°03' W 063°09'6 6.2
2017-Mar-02 17:32N 17°58' W 063°05'3 1.4
2017-Mar-02 15:32N 18°01' W 063°04'5 5.3
2017-Mar-02 14:33N 18°03' W 063°09'6 5.4
2017-Mar-02 13:32N 17°59' W 063°05'2 0.5
2017-Mar-02 08:25N 18°01' W 063°03'0 0.0
2017-Mar-02 07:07N 18°01' W 063°03'0 0.0
2017-Mar-02 04:13N 18°01' W 063°03'0 0.0
2017-Mar-02 01:25N 18°01' W 063°03'0 0.0
2017-Mar-01 09:32N 18°01' W 063°03'0 0.0
2017-Mar-01 07:17N 18°01' W 063°03'0 0.0
2017-Mar-01 06:32N 18°01' W 063°03'0 0.0
2017-Mar-01 05:08N 18°01' W 063°03'0 0.0
2017-Mar-01 04:30N 18°01' W 063°03'0 0.0
2017-Mar-01 03:31N 18°01' W 063°03'0 0.0
2017-Mar-01 02:22N 18°01' W 063°03'0 0.0
2017-Mar-01 01:24N 18°01' W 063°03'0 0.0
2017-Mar-01 00:33N 18°01' W 063°03'0 0.0
2017-Feb-28 23:22N 18°01' W 063°03'1 0.2
2017-Feb-28 20:09N 18°01' W 063°04'3 5.4
2017-Feb-28 19:34N 18°02' W 063°07'2 1.4
2017-Feb-28 18:31N 18°01' W 063°06'3 0.8
2017-Feb-28 15:16N 18°01' W 063°03'5 5.4
2017-Feb-28 14:20N 18°03' W 063°08'4 4.7
2017-Feb-28 13:31N 17°60' W 063°06'3 0.1
2017-Feb-27 03:26N 18°01' W 063°03'0 0.0
2017-Feb-27 02:29N 18°01' W 063°03'1 0.1
2017-Feb-26 20:28N 18°01' W 063°04'4 4.0
2017-Feb-26 19:25N 18°02' W 063°08'4 4.2
2017-Feb-26 18:33N 17°60' W 063°05'2 0.6
2017-Feb-26 15:29N 18°01' W 063°03'5 5.2
2017-Feb-26 14:34N 18°03' W 063°08'4 3.6
2017-Feb-26 13:33N 17°60' W 063°06'  

Dump ship's entire track history